sensor_id;sensor_type;location;lat;lon;timestamp;temperature;humidity
77277;DHT22;66330;52.166;9.978;2023-03-15T00:01:40;3.70;61.70
77277;DHT22;66330;52.166;9.978;2023-03-15T00:04:06;3.80;61.90
77277;DHT22;66330;52.166;9.978;2023-03-15T00:06:33;3.80;61.80
77277;DHT22;66330;52.166;9.978;2023-03-15T00:09:02;4.10;62.20
77277;DHT22;66330;52.166;9.978;2023-03-15T00:11:28;3.70;61.80
77277;DHT22;66330;52.166;9.978;2023-03-15T00:13:59;3.60;61.80
77277;DHT22;66330;52.166;9.978;2023-03-15T00:16:27;3.90;62.10
77277;DHT22;66330;52.166;9.978;2023-03-15T00:18:53;3.70;62.00
77277;DHT22;66330;52.166;9.978;2023-03-15T00:21:19;3.70;62.00
77277;DHT22;66330;52.166;9.978;2023-03-15T00:23:45;3.50;61.80
77277;DHT22;66330;52.166;9.978;2023-03-15T00:26:11;3.50;61.80
77277;DHT22;66330;52.166;9.978;2023-03-15T00:28:37;3.50;61.80
77277;DHT22;66330;52.166;9.978;2023-03-15T00:31:23;3.80;62.10
77277;DHT22;66330;52.166;9.978;2023-03-15T00:33:50;3.60;61.70
77277;DHT22;66330;52.166;9.978;2023-03-15T00:36:18;3.90;62.00
77277;DHT22;66330;52.166;9.978;2023-03-15T00:38:48;3.60;61.50
77277;DHT22;66330;52.166;9.978;2023-03-15T00:41:16;3.60;61.50
77277;DHT22;66330;52.166;9.978;2023-03-15T00:43:42;3.60;61.30
77277;DHT22;66330;52.166;9.978;2023-03-15T00:46:08;3.60;61.20
77277;DHT22;66330;52.166;9.978;2023-03-15T00:48:34;3.90;61.50
77277;DHT22;66330;52.166;9.978;2023-03-15T00:51:08;3.60;61.10
77277;DHT22;66330;52.166;9.978;2023-03-15T00:53:35;3.60;61.10
77277;DHT22;66330;52.166;9.978;2023-03-15T00:56:06;3.80;61.30
77277;DHT22;66330;52.166;9.978;2023-03-15T00:58:33;3.60;61.00
77277;DHT22;66330;52.166;9.978;2023-03-15T01:00:58;4.00;61.30
77277;DHT22;66330;52.166;9.978;2023-03-15T01:03:26;3.60;60.90
77277;DHT22;66330;52.166;9.978;2023-03-15T01:05:52;3.90;61.20
77277;DHT22;66330;52.166;9.978;2023-03-15T01:08:17;3.50;60.80
77277;DHT22;66330;52.166;9.978;2023-03-15T01:10:43;3.90;61.20
77277;DHT22;66330;52.166;9.978;2023-03-15T01:13:08;3.60;60.90
77277;DHT22;66330;52.166;9.978;2023-03-15T01:15:34;3.50;60.80
77277;DHT22;66330;52.166;9.978;2023-03-15T01:18:00;3.60;60.90
77277;DHT22;66330;52.166;9.978;2023-03-15T01:20:25;3.90;61.20
77277;DHT22;66330;52.166;9.978;2023-03-15T01:22:51;3.70;60.80
77277;DHT22;66330;52.166;9.978;2023-03-15T01:25:16;4.10;61.30
77277;DHT22;66330;52.166;9.978;2023-03-15T01:27:42;3.60;60.70
77277;DHT22;66330;52.166;9.978;2023-03-15T01:30:08;3.60;60.70
77277;DHT22;66330;52.166;9.978;2023-03-15T01:32:34;4.20;61.30
77277;DHT22;66330;52.166;9.978;2023-03-15T01:34:59;3.90;60.90
77277;DHT22;66330;52.166;9.978;2023-03-15T01:37:25;4.00;61.00
77277;DHT22;66330;52.166;9.978;2023-03-15T01:39:51;4.00;61.00
77277;DHT22;66330;52.166;9.978;2023-03-15T01:42:17;3.60;60.60
77277;DHT22;66330;52.166;9.978;2023-03-15T01:44:49;3.70;60.60
77277;DHT22;66330;52.166;9.978;2023-03-15T01:47:15;3.90;61.20
77277;DHT22;66330;52.166;9.978;2023-03-15T01:49:43;3.70;60.40
77277;DHT22;66330;52.166;9.978;2023-03-15T01:52:24;3.70;60.40
77277;DHT22;66330;52.166;9.978;2023-03-15T01:54:57;3.70;60.30
77277;DHT22;66330;52.166;9.978;2023-03-15T02:00:02;3.90;60.50
77277;DHT22;66330;52.166;9.978;2023-03-15T02:02:32;3.90;60.40
77277;DHT22;66330;52.166;9.978;2023-03-15T02:05:08;4.10;60.50
77277;DHT22;66330;52.166;9.978;2023-03-15T02:07:38;3.90;60.10
77277;DHT22;66330;52.166;9.978;2023-03-15T02:10:11;4.10;60.10
77277;DHT22;66330;52.166;9.978;2023-03-15T02:12:45;4.00;59.90
77277;DHT22;66330;52.166;9.978;2023-03-15T02:15:14;4.00;59.80
77277;DHT22;66330;52.166;9.978;2023-03-15T02:17:45;4.00;59.80
77277;DHT22;66330;52.166;9.978;2023-03-15T02:20:31;4.70;60.30
77277;DHT22;66330;52.166;9.978;2023-03-15T02:23:12;4.50;59.90
77277;DHT22;66330;52.166;9.978;2023-03-15T02:26:06;4.10;59.40
77277;DHT22;66330;52.166;9.978;2023-03-15T02:28:34;4.30;59.40
77277;DHT22;66330;52.166;9.978;2023-03-15T02:30:59;4.50;59.40
77277;DHT22;66330;52.166;9.978;2023-03-15T02:33:28;4.40;59.20
77277;DHT22;66330;52.166;9.978;2023-03-15T02:35:56;4.40;59.10
77277;DHT22;66330;52.166;9.978;2023-03-15T02:38:31;4.60;59.10
77277;DHT22;66330;52.166;9.978;2023-03-15T02:40:56;4.40;58.80
77277;DHT22;66330;52.166;9.978;2023-03-15T02:43:24;4.80;59.00
77277;DHT22;66330;52.166;9.978;2023-03-15T02:45:52;4.60;58.70
77277;DHT22;66330;52.166;9.978;2023-03-15T02:48:19;4.40;58.30
77277;DHT22;66330;52.166;9.978;2023-03-15T02:50:45;4.50;58.60
77277;DHT22;66330;52.166;9.978;2023-03-15T02:53:11;5.20;59.10
77277;DHT22;66330;52.166;9.978;2023-03-15T02:55:37;4.70;58.70
77277;DHT22;66330;52.166;9.978;2023-03-15T02:58:03;4.60;58.60
77277;DHT22;66330;52.166;9.978;2023-03-15T03:00:29;4.50;58.60
77277;DHT22;66330;52.166;9.978;2023-03-15T03:02:55;4.50;58.70
77277;DHT22;66330;52.166;9.978;2023-03-15T03:05:21;4.50;58.70
77277;DHT22;66330;52.166;9.978;2023-03-15T03:07:47;4.60;58.90
77277;DHT22;66330;52.166;9.978;2023-03-15T03:10:15;4.80;59.20
77277;DHT22;66330;52.166;9.978;2023-03-15T03:12:41;4.50;59.10
77277;DHT22;66330;52.166;9.978;2023-03-15T03:15:07;4.50;59.20
77277;DHT22;66330;52.166;9.978;2023-03-15T03:17:34;4.50;59.10
77277;DHT22;66330;52.166;9.978;2023-03-15T03:20:06;4.50;59.40
77277;DHT22;66330;52.166;9.978;2023-03-15T03:22:33;4.50;59.50
77277;DHT22;66330;52.166;9.978;2023-03-15T03:24:58;4.40;59.60
77277;DHT22;66330;52.166;9.978;2023-03-15T03:27:24;4.50;59.80
77277;DHT22;66330;52.166;9.978;2023-03-15T03:29:50;4.40;59.90
77277;DHT22;66330;52.166;9.978;2023-03-15T03:32:15;4.50;60.20
77277;DHT22;66330;52.166;9.978;2023-03-15T03:34:41;4.50;60.50
77277;DHT22;66330;52.166;9.978;2023-03-15T03:37:19;4.50;61.00
77277;DHT22;66330;52.166;9.978;2023-03-15T03:39:45;4.40;61.30
77277;DHT22;66330;52.166;9.978;2023-03-15T03:42:11;4.50;61.60
77277;DHT22;66330;52.166;9.978;2023-03-15T03:44:37;4.40;61.90
77277;DHT22;66330;52.166;9.978;2023-03-15T03:47:03;4.60;62.40
77277;DHT22;66330;52.166;9.978;2023-03-15T03:49:28;4.60;62.80
77277;DHT22;66330;52.166;9.978;2023-03-15T03:51:54;4.30;63.00
77277;DHT22;66330;52.166;9.978;2023-03-15T03:54:20;4.40;63.50
77277;DHT22;66330;52.166;9.978;2023-03-15T03:56:46;4.20;64.40
77277;DHT22;66330;52.166;9.978;2023-03-15T03:59:12;4.10;64.00
77277;DHT22;66330;52.166;9.978;2023-03-15T04:01:38;4.20;64.40
77277;DHT22;66330;52.166;9.978;2023-03-15T04:04:04;4.10;64.60
77277;DHT22;66330;52.166;9.978;2023-03-15T04:06:29;4.60;65.20
77277;DHT22;66330;52.166;9.978;2023-03-15T04:08:55;4.00;64.80
77277;DHT22;66330;52.166;9.978;2023-03-15T04:11:21;4.00;65.20
77277;DHT22;66330;52.166;9.978;2023-03-15T04:13:51;4.00;65.50
77277;DHT22;66330;52.166;9.978;2023-03-15T04:16:18;4.10;65.90
77277;DHT22;66330;52.166;9.978;2023-03-15T04:18:44;3.90;66.00
77277;DHT22;66330;52.166;9.978;2023-03-15T04:21:09;4.00;66.50
77277;DHT22;66330;52.166;9.978;2023-03-15T04:23:36;3.70;66.50
77277;DHT22;66330;52.166;9.978;2023-03-15T04:26:02;3.60;66.80
77277;DHT22;66330;52.166;9.978;2023-03-15T04:28:30;3.60;67.00
77277;DHT22;66330;52.166;9.978;2023-03-15T04:30:55;3.50;67.20
77277;DHT22;66330;52.166;9.978;2023-03-15T04:33:24;3.40;67.40
77277;DHT22;66330;52.166;9.978;2023-03-15T04:35:49;3.40;67.70
77277;DHT22;66330;52.166;9.978;2023-03-15T04:38:17;3.40;68.10
77277;DHT22;66330;52.166;9.978;2023-03-15T04:40:43;3.50;68.40
77277;DHT22;66330;52.166;9.978;2023-03-15T04:43:09;3.80;69.00
77277;DHT22;66330;52.166;9.978;2023-03-15T04:45:34;3.40;69.00
77277;DHT22;66330;52.166;9.978;2023-03-15T04:48:01;3.30;69.00
77277;DHT22;66330;52.166;9.978;2023-03-15T04:50:27;3.30;69.50
77277;DHT22;66330;52.166;9.978;2023-03-15T04:52:55;3.40;69.80
77277;DHT22;66330;52.166;9.978;2023-03-15T04:55:21;3.30;69.80
77277;DHT22;66330;52.166;9.978;2023-03-15T04:57:47;3.40;70.00
77277;DHT22;66330;52.166;9.978;2023-03-15T05:00:13;3.40;70.10
77277;DHT22;66330;52.166;9.978;2023-03-15T05:02:39;3.40;70.20
77277;DHT22;66330;52.166;9.978;2023-03-15T05:05:10;3.40;70.40
77277;DHT22;66330;52.166;9.978;2023-03-15T05:07:36;3.70;70.90
77277;DHT22;66330;52.166;9.978;2023-03-15T05:10:03;3.50;70.80
77277;DHT22;66330;52.166;9.978;2023-03-15T05:12:29;3.60;70.80
77277;DHT22;66330;52.166;9.978;2023-03-15T05:14:56;3.60;70.90
77277;DHT22;66330;52.166;9.978;2023-03-15T05:17:21;3.90;71.00
77277;DHT22;66330;52.166;9.978;2023-03-15T05:19:50;3.80;70.70
77277;DHT22;66330;52.166;9.978;2023-03-15T05:22:16;3.80;70.30
77277;DHT22;66330;52.166;9.978;2023-03-15T05:24:42;3.90;70.40
77277;DHT22;66330;52.166;9.978;2023-03-15T05:27:08;3.90;70.40
77277;DHT22;66330;52.166;9.978;2023-03-15T05:29:34;3.80;70.40
77277;DHT22;66330;52.166;9.978;2023-03-15T05:31:59;4.50;71.00
77277;DHT22;66330;52.166;9.978;2023-03-15T05:34:29;4.00;70.50
77277;DHT22;66330;52.166;9.978;2023-03-15T05:36:57;4.00;70.30
77277;DHT22;66330;52.166;9.978;2023-03-15T05:39:22;4.10;70.50
77277;DHT22;66330;52.166;9.978;2023-03-15T05:41:48;4.10;70.60
77277;DHT22;66330;52.166;9.978;2023-03-15T05:44:14;3.90;70.40
77277;DHT22;66330;52.166;9.978;2023-03-15T05:46:39;3.90;70.60
77277;DHT22;66330;52.166;9.978;2023-03-15T05:49:05;3.80;70.90
77277;DHT22;66330;52.166;9.978;2023-03-15T05:51:30;3.80;71.90
77277;DHT22;66330;52.166;9.978;2023-03-15T05:53:56;4.20;71.80
77277;DHT22;66330;52.166;9.978;2023-03-15T05:56:22;3.90;71.80
77277;DHT22;66330;52.166;9.978;2023-03-15T05:58:47;4.10;72.00
77277;DHT22;66330;52.166;9.978;2023-03-15T06:01:13;3.90;71.90
77277;DHT22;66330;52.166;9.978;2023-03-15T06:03:38;3.90;71.80
77277;DHT22;66330;52.166;9.978;2023-03-15T06:06:04;4.10;72.00
77277;DHT22;66330;52.166;9.978;2023-03-15T06:08:29;4.10;72.00
77277;DHT22;66330;52.166;9.978;2023-03-15T06:10:55;4.00;71.80
77277;DHT22;66330;52.166;9.978;2023-03-15T06:13:21;4.10;71.80
77277;DHT22;66330;52.166;9.978;2023-03-15T06:15:46;4.00;71.80
77277;DHT22;66330;52.166;9.978;2023-03-15T06:18:12;4.00;71.70
77277;DHT22;66330;52.166;9.978;2023-03-15T06:20:39;4.20;71.90
77277;DHT22;66330;52.166;9.978;2023-03-15T06:23:05;4.30;72.00
77277;DHT22;66330;52.166;9.978;2023-03-15T06:25:31;4.20;71.90
77277;DHT22;66330;52.166;9.978;2023-03-15T06:27:56;4.30;71.80
77277;DHT22;66330;52.166;9.978;2023-03-15T06:30:22;4.10;71.60
77277;DHT22;66330;52.166;9.978;2023-03-15T06:32:48;4.10;71.50
77277;DHT22;66330;52.166;9.978;2023-03-15T06:35:13;4.40;71.70
77277;DHT22;66330;52.166;9.978;2023-03-15T06:37:39;4.40;72.00
77277;DHT22;66330;52.166;9.978;2023-03-15T06:40:07;4.30;72.00
77277;DHT22;66330;52.166;9.978;2023-03-15T06:42:37;4.30;71.80
77277;DHT22;66330;52.166;9.978;2023-03-15T06:45:04;4.20;71.60
77277;DHT22;66330;52.166;9.978;2023-03-15T06:47:30;4.20;71.50
77277;DHT22;66330;52.166;9.978;2023-03-15T06:49:56;4.40;71.70
77277;DHT22;66330;52.166;9.978;2023-03-15T06:52:22;4.40;71.70
77277;DHT22;66330;52.166;9.978;2023-03-15T06:54:48;4.40;71.40
77277;DHT22;66330;52.166;9.978;2023-03-15T06:57:13;4.50;71.30
77277;DHT22;66330;52.166;9.978;2023-03-15T06:59:39;4.40;70.90
77277;DHT22;66330;52.166;9.978;2023-03-15T07:02:05;4.50;70.70
77277;DHT22;66330;52.166;9.978;2023-03-15T07:04:31;4.50;70.70
77277;DHT22;66330;52.166;9.978;2023-03-15T07:06:56;4.50;70.70
77277;DHT22;66330;52.166;9.978;2023-03-15T07:09:22;4.50;70.60
77277;DHT22;66330;52.166;9.978;2023-03-15T07:11:48;4.40;70.60
77277;DHT22;66330;52.166;9.978;2023-03-15T07:14:13;4.70;70.90
77277;DHT22;66330;52.166;9.978;2023-03-15T07:16:39;4.70;71.10
77277;DHT22;66330;52.166;9.978;2023-03-15T07:19:04;4.80;71.60
77277;DHT22;66330;52.166;9.978;2023-03-15T07:21:30;5.00;71.50
77277;DHT22;66330;52.166;9.978;2023-03-15T07:23:56;5.10;70.80
77277;DHT22;66330;52.166;9.978;2023-03-15T07:26:21;5.20;70.40
77277;DHT22;66330;52.166;9.978;2023-03-15T07:28:47;5.30;70.50
77277;DHT22;66330;52.166;9.978;2023-03-15T07:31:12;5.50;70.30
77277;DHT22;66330;52.166;9.978;2023-03-15T07:33:38;5.80;70.30
77277;DHT22;66330;52.166;9.978;2023-03-15T07:36:05;6.00;70.00
77277;DHT22;66330;52.166;9.978;2023-03-15T07:38:31;6.10;69.20
77277;DHT22;66330;52.166;9.978;2023-03-15T07:41:00;6.40;68.70
77277;DHT22;66330;52.166;9.978;2023-03-15T07:43:26;6.90;68.90
77277;DHT22;66330;52.166;9.978;2023-03-15T07:45:51;6.30;67.90
77277;DHT22;66330;52.166;9.978;2023-03-15T07:48:17;6.40;68.20
77277;DHT22;66330;52.166;9.978;2023-03-15T07:50:44;6.60;68.10
77277;DHT22;66330;52.166;9.978;2023-03-15T07:53:10;6.70;67.80
77277;DHT22;66330;52.166;9.978;2023-03-15T07:55:35;7.00;67.80
77277;DHT22;66330;52.166;9.978;2023-03-15T07:58:01;7.20;67.20
77277;DHT22;66330;52.166;9.978;2023-03-15T08:00:27;6.70;66.30
77277;DHT22;66330;52.166;9.978;2023-03-15T08:02:53;6.60;65.80
77277;DHT22;66330;52.166;9.978;2023-03-15T08:05:21;6.30;65.60
77277;DHT22;66330;52.166;9.978;2023-03-15T08:07:47;6.40;65.70
77277;DHT22;66330;52.166;9.978;2023-03-15T08:10:14;6.30;66.00
77277;DHT22;66330;52.166;9.978;2023-03-15T08:12:40;6.30;66.50
77277;DHT22;66330;52.166;9.978;2023-03-15T08:15:12;6.60;67.60
77277;DHT22;66330;52.166;9.978;2023-03-15T08:17:39;6.90;67.40
77277;DHT22;66330;52.166;9.978;2023-03-15T08:20:05;7.20;66.80
77277;DHT22;66330;52.166;9.978;2023-03-15T08:22:34;7.40;66.00
77277;DHT22;66330;52.166;9.978;2023-03-15T08:24:59;7.70;65.70
77277;DHT22;66330;52.166;9.978;2023-03-15T08:27:25;8.00;65.40
77277;DHT22;66330;52.166;9.978;2023-03-15T08:29:51;8.10;64.00
77277;DHT22;66330;52.166;9.978;2023-03-15T08:32:17;8.10;63.40
77277;DHT22;66330;52.166;9.978;2023-03-15T08:34:44;8.10;62.70
77277;DHT22;66330;52.166;9.978;2023-03-15T08:37:10;8.00;61.80
77277;DHT22;66330;52.166;9.978;2023-03-15T08:39:37;7.80;60.70
77277;DHT22;66330;52.166;9.978;2023-03-15T08:42:03;7.50;60.50
77277;DHT22;66330;52.166;9.978;2023-03-15T08:44:28;7.40;61.40
77277;DHT22;66330;52.166;9.978;2023-03-15T08:46:54;7.40;61.90
77277;DHT22;66330;52.166;9.978;2023-03-15T08:49:19;7.50;62.20
77277;DHT22;66330;52.166;9.978;2023-03-15T08:51:45;7.60;62.90
77277;DHT22;66330;52.166;9.978;2023-03-15T08:54:11;7.80;63.40
77277;DHT22;66330;52.166;9.978;2023-03-15T08:56:39;8.20;64.10
77277;DHT22;66330;52.166;9.978;2023-03-15T08:59:05;8.60;63.30
77277;DHT22;66330;52.166;9.978;2023-03-15T09:01:31;8.70;61.70
77277;DHT22;66330;52.166;9.978;2023-03-15T09:03:57;8.80;60.50
77277;DHT22;66330;52.166;9.978;2023-03-15T09:06:23;8.70;59.50
77277;DHT22;66330;52.166;9.978;2023-03-15T09:08:49;8.60;59.10
77277;DHT22;66330;52.166;9.978;2023-03-15T09:11:15;8.60;58.50
77277;DHT22;66330;52.166;9.978;2023-03-15T09:13:40;8.60;59.20
77277;DHT22;66330;52.166;9.978;2023-03-15T09:16:06;8.70;59.20
77277;DHT22;66330;52.166;9.978;2023-03-15T09:18:32;8.80;59.10
77277;DHT22;66330;52.166;9.978;2023-03-15T09:20:58;9.00;59.10
77277;DHT22;66330;52.166;9.978;2023-03-15T09:23:23;9.10;58.20
77277;DHT22;66330;52.166;9.978;2023-03-15T09:25:49;9.30;58.20
77277;DHT22;66330;52.166;9.978;2023-03-15T09:28:15;9.50;58.80
77277;DHT22;66330;52.166;9.978;2023-03-15T09:30:41;9.70;58.30
77277;DHT22;66330;52.166;9.978;2023-03-15T09:33:07;10.00;56.90
77277;DHT22;66330;52.166;9.978;2023-03-15T09:35:33;10.00;56.50
77277;DHT22;66330;52.166;9.978;2023-03-15T09:37:59;10.20;56.50
77277;DHT22;66330;52.166;9.978;2023-03-15T09:40:27;10.40;56.10
77277;DHT22;66330;52.166;9.978;2023-03-15T09:43:00;10.80;56.70
77277;DHT22;66330;52.166;9.978;2023-03-15T09:48:17;11.50;55.00
77277;DHT22;66330;52.166;9.978;2023-03-15T09:50:57;11.60;53.90
77277;DHT22;66330;52.166;9.978;2023-03-15T09:53:42;11.90;53.40
77277;DHT22;66330;52.166;9.978;2023-03-15T09:56:23;11.40;53.20
77277;DHT22;66330;52.166;9.978;2023-03-15T09:58:51;11.40;52.70
77277;DHT22;66330;52.166;9.978;2023-03-15T10:01:18;11.60;53.20
77277;DHT22;66330;52.166;9.978;2023-03-15T10:03:49;12.10;53.60
77277;DHT22;66330;52.166;9.978;2023-03-15T10:08:56;12.90;52.30
77277;DHT22;66330;52.166;9.978;2023-03-15T10:14:15;12.70;49.30
77277;DHT22;66330;52.166;9.978;2023-03-15T10:16:46;12.70;49.90
77277;DHT22;66330;52.166;9.978;2023-03-15T10:19:24;12.50;48.80
77277;DHT22;66330;52.166;9.978;2023-03-15T10:27:33;13.30;49.10
77277;DHT22;66330;52.166;9.978;2023-03-15T10:30:08;13.70;47.30
77277;DHT22;66330;52.166;9.978;2023-03-15T10:32:40;14.00;45.20
77277;DHT22;66330;52.166;9.978;2023-03-15T10:35:17;14.30;44.30
77277;DHT22;66330;52.166;9.978;2023-03-15T10:37:43;14.50;42.30
77277;DHT22;66330;52.166;9.978;2023-03-15T10:40:10;14.70;42.80
77277;DHT22;66330;52.166;9.978;2023-03-15T10:42:46;14.40;42.00
77277;DHT22;66330;52.166;9.978;2023-03-15T10:47:44;13.40;42.30
77277;DHT22;66330;52.166;9.978;2023-03-15T10:50:17;12.80;41.90
77277;DHT22;66330;52.166;9.978;2023-03-15T10:52:44;12.70;42.80
77277;DHT22;66330;52.166;9.978;2023-03-15T10:55:13;13.60;44.50
77277;DHT22;66330;52.166;9.978;2023-03-15T10:57:51;14.50;44.10
77277;DHT22;66330;52.166;9.978;2023-03-15T11:00:25;15.60;43.80
77277;DHT22;66330;52.166;9.978;2023-03-15T11:03:06;16.50;42.20
77277;DHT22;66330;52.166;9.978;2023-03-15T11:05:41;17.00;40.00
77277;DHT22;66330;52.166;9.978;2023-03-15T11:08:12;16.50;37.90
77277;DHT22;66330;52.166;9.978;2023-03-15T11:10:38;15.60;37.60
77277;DHT22;66330;52.166;9.978;2023-03-15T11:13:17;14.70;37.50
77277;DHT22;66330;52.166;9.978;2023-03-15T11:18:48;13.00;39.20
77277;DHT22;66330;52.166;9.978;2023-03-15T11:21:19;12.10;40.40
77277;DHT22;66330;52.166;9.978;2023-03-15T11:23:48;11.80;41.70
77277;DHT22;66330;52.166;9.978;2023-03-15T11:28:52;10.70;43.50
77277;DHT22;66330;52.166;9.978;2023-03-15T11:31:20;10.70;44.70
77277;DHT22;66330;52.166;9.978;2023-03-15T11:36:32;13.20;46.90
77277;DHT22;66330;52.166;9.978;2023-03-15T11:38:59;15.00;45.90
77277;DHT22;66330;52.166;9.978;2023-03-15T11:41:43;16.40;43.90
77277;DHT22;66330;52.166;9.978;2023-03-15T11:44:32;17.50;42.00
77277;DHT22;66330;52.166;9.978;2023-03-15T11:49:55;19.80;39.60
77277;DHT22;66330;52.166;9.978;2023-03-15T11:52:24;20.60;37.60
77277;DHT22;66330;52.166;9.978;2023-03-15T11:54:50;21.10;37.20
77277;DHT22;66330;52.166;9.978;2023-03-15T11:59:57;21.50;33.20
77277;DHT22;66330;52.166;9.978;2023-03-15T12:02:49;21.30;32.60
77277;DHT22;66330;52.166;9.978;2023-03-15T12:05:50;20.70;32.50
77277;DHT22;66330;52.166;9.978;2023-03-15T12:08:22;20.60;32.50
77277;DHT22;66330;52.166;9.978;2023-03-15T12:10:52;20.70;32.50
77277;DHT22;66330;52.166;9.978;2023-03-15T12:13:22;21.00;32.50
77277;DHT22;66330;52.166;9.978;2023-03-15T12:15:48;21.20;32.00
77277;DHT22;66330;52.166;9.978;2023-03-15T12:18:18;21.60;31.50
77277;DHT22;66330;52.166;9.978;2023-03-15T12:21:06;21.80;30.60
77277;DHT22;66330;52.166;9.978;2023-03-15T12:23:37;21.00;29.40
77277;DHT22;66330;52.166;9.978;2023-03-15T12:26:04;19.70;29.90
77277;DHT22;66330;52.166;9.978;2023-03-15T12:28:37;18.90;30.40
77277;DHT22;66330;52.166;9.978;2023-03-15T12:31:09;18.10;31.20
77277;DHT22;66330;52.166;9.978;2023-03-15T12:33:49;17.40;31.70
77277;DHT22;66330;52.166;9.978;2023-03-15T12:38:57;15.80;32.40
77277;DHT22;66330;52.166;9.978;2023-03-15T12:41:51;15.30;33.60
77277;DHT22;66330;52.166;9.978;2023-03-15T12:47:02;14.50;35.10
77277;DHT22;66330;52.166;9.978;2023-03-15T12:49:37;14.90;36.60
77277;DHT22;66330;52.166;9.978;2023-03-15T12:54:49;15.10;35.20
77277;DHT22;66330;52.166;9.978;2023-03-15T12:57:22;16.00;35.20
77277;DHT22;66330;52.166;9.978;2023-03-15T12:59:49;16.80;33.90
77277;DHT22;66330;52.166;9.978;2023-03-15T13:02:30;17.50;32.80
77277;DHT22;66330;52.166;9.978;2023-03-15T13:11:03;17.90;29.80
77277;DHT22;66330;52.166;9.978;2023-03-15T13:14:06;16.70;31.50
77277;DHT22;66330;52.166;9.978;2023-03-15T13:16:47;15.90;34.30
77277;DHT22;66330;52.166;9.978;2023-03-15T13:19:25;16.20;37.10
77277;DHT22;66330;52.166;9.978;2023-03-15T13:24:56;16.90;37.30
77277;DHT22;66330;52.166;9.978;2023-03-15T13:27:41;17.20;37.20
77277;DHT22;66330;52.166;9.978;2023-03-15T13:30:32;17.40;37.10
77277;DHT22;66330;52.166;9.978;2023-03-15T13:36:19;18.90;37.90
77277;DHT22;66330;52.166;9.978;2023-03-15T13:38:55;19.20;37.10
77277;DHT22;66330;52.166;9.978;2023-03-15T13:41:23;19.40;37.00
77277;DHT22;66330;52.166;9.978;2023-03-15T13:43:55;19.90;35.70
77277;DHT22;66330;52.166;9.978;2023-03-15T13:46:23;19.60;35.30
77277;DHT22;66330;52.166;9.978;2023-03-15T13:48:50;19.70;35.50
77277;DHT22;66330;52.166;9.978;2023-03-15T13:53:49;19.80;35.30
77277;DHT22;66330;52.166;9.978;2023-03-15T13:56:19;19.60;34.90
77277;DHT22;66330;52.166;9.978;2023-03-15T13:58:46;19.40;34.80
77277;DHT22;66330;52.166;9.978;2023-03-15T14:01:13;19.50;35.10
77277;DHT22;66330;52.166;9.978;2023-03-15T14:03:41;19.90;35.30
77277;DHT22;66330;52.166;9.978;2023-03-15T14:06:12;20.10;34.60
77277;DHT22;66330;52.166;9.978;2023-03-15T14:08:39;20.10;34.20
77277;DHT22;66330;52.166;9.978;2023-03-15T14:11:20;19.70;33.70
77277;DHT22;66330;52.166;9.978;2023-03-15T14:13:58;19.30;34.00
77277;DHT22;66330;52.166;9.978;2023-03-15T14:16:39;19.10;34.40
77277;DHT22;66330;52.166;9.978;2023-03-15T14:19:18;19.00;34.80
77277;DHT22;66330;52.166;9.978;2023-03-15T14:22:30;19.10;35.40
77277;DHT22;66330;52.166;9.978;2023-03-15T14:24:36;19.50;35.40
77277;DHT22;66330;52.166;9.978;2023-03-15T14:27:08;19.80;35.10
77277;DHT22;66330;52.166;9.978;2023-03-15T14:29:45;20.20;34.40
77277;DHT22;66330;52.166;9.978;2023-03-15T14:34:48;19.50;33.40
77277;DHT22;66330;52.166;9.978;2023-03-15T14:37:43;19.50;34.00
77277;DHT22;66330;52.166;9.978;2023-03-15T14:40:21;19.70;33.70
77277;DHT22;66330;52.166;9.978;2023-03-15T14:42:48;19.90;33.90
77277;DHT22;66330;52.166;9.978;2023-03-15T14:45:15;19.90;33.50
77277;DHT22;66330;52.166;9.978;2023-03-15T14:47:45;19.80;32.80
77277;DHT22;66330;52.166;9.978;2023-03-15T14:50:19;19.60;32.40
77277;DHT22;66330;52.166;9.978;2023-03-15T14:52:47;19.40;32.70
77277;DHT22;66330;52.166;9.978;2023-03-15T14:55:27;19.40;33.20
77277;DHT22;66330;52.166;9.978;2023-03-15T14:57:53;19.30;32.60
77277;DHT22;66330;52.166;9.978;2023-03-15T15:00:19;19.00;32.60
77277;DHT22;66330;52.166;9.978;2023-03-15T15:02:47;18.70;32.70
77277;DHT22;66330;52.166;9.978;2023-03-15T15:07:46;18.50;33.40
77277;DHT22;66330;52.166;9.978;2023-03-15T15:10:12;19.00;34.20
77277;DHT22;66330;52.166;9.978;2023-03-15T15:12:38;18.80;33.50
77277;DHT22;66330;52.166;9.978;2023-03-15T15:15:17;18.20;32.70
77277;DHT22;66330;52.166;9.978;2023-03-15T15:17:44;17.80;32.60
77277;DHT22;66330;52.166;9.978;2023-03-15T15:20:10;17.40;33.00
77277;DHT22;66330;52.166;9.978;2023-03-15T15:22:38;17.30;33.70
77277;DHT22;66330;52.166;9.978;2023-03-15T15:25:24;17.20;33.70
77277;DHT22;66330;52.166;9.978;2023-03-15T15:27:50;16.90;33.30
77277;DHT22;66330;52.166;9.978;2023-03-15T15:30:18;16.70;33.70
77277;DHT22;66330;52.166;9.978;2023-03-15T15:32:44;16.50;33.70
77277;DHT22;66330;52.166;9.978;2023-03-15T15:35:15;16.00;34.00
77277;DHT22;66330;52.166;9.978;2023-03-15T15:37:42;15.60;34.80
77277;DHT22;66330;52.166;9.978;2023-03-15T15:40:18;15.50;35.60
77277;DHT22;66330;52.166;9.978;2023-03-15T15:42:44;15.70;35.50
77277;DHT22;66330;52.166;9.978;2023-03-15T15:45:12;15.50;35.60
77277;DHT22;66330;52.166;9.978;2023-03-15T15:47:38;15.50;35.90
77277;DHT22;66330;52.166;9.978;2023-03-15T15:50:04;15.40;35.70
77277;DHT22;66330;52.166;9.978;2023-03-15T15:52:30;15.10;35.40
77277;DHT22;66330;52.166;9.978;2023-03-15T15:54:55;15.00;35.70
77277;DHT22;66330;52.166;9.978;2023-03-15T15:57:21;14.90;35.90
77277;DHT22;66330;52.166;9.978;2023-03-15T15:59:51;14.70;35.70
77277;DHT22;66330;52.166;9.978;2023-03-15T16:02:17;14.80;36.30
77277;DHT22;66330;52.166;9.978;2023-03-15T16:04:50;14.90;36.60
77277;DHT22;66330;52.166;9.978;2023-03-15T16:07:16;14.50;36.50
77277;DHT22;66330;52.166;9.978;2023-03-15T16:09:43;14.60;36.70
77277;DHT22;66330;52.166;9.978;2023-03-15T16:12:14;14.50;36.50
77277;DHT22;66330;52.166;9.978;2023-03-15T16:14:40;14.30;36.60
77277;DHT22;66330;52.166;9.978;2023-03-15T16:17:11;14.50;37.00
77277;DHT22;66330;52.166;9.978;2023-03-15T16:19:36;13.80;36.70
77277;DHT22;66330;52.166;9.978;2023-03-15T16:22:02;13.60;36.60
77277;DHT22;66330;52.166;9.978;2023-03-15T16:24:29;13.00;36.30
77277;DHT22;66330;52.166;9.978;2023-03-15T16:27:01;12.70;36.40
77277;DHT22;66330;52.166;9.978;2023-03-15T16:29:41;12.10;36.40
77277;DHT22;66330;52.166;9.978;2023-03-15T16:32:34;11.60;36.70
77277;DHT22;66330;52.166;9.978;2023-03-15T16:34:59;11.00;37.30
77277;DHT22;66330;52.166;9.978;2023-03-15T16:37:31;10.60;37.60
77277;DHT22;66330;52.166;9.978;2023-03-15T16:39:59;10.20;38.10
77277;DHT22;66330;52.166;9.978;2023-03-15T16:42:25;9.90;39.30
77277;DHT22;66330;52.166;9.978;2023-03-15T16:44:51;10.20;39.30
77277;DHT22;66330;52.166;9.978;2023-03-15T16:47:18;9.30;40.20
77277;DHT22;66330;52.166;9.978;2023-03-15T16:49:44;9.60;40.80
77277;DHT22;66330;52.166;9.978;2023-03-15T16:52:11;8.80;41.10